Time;durP1;ratioP1;P1;durP2;ratioP2;P2;SDS_P1;SDS_P2;PMS_P1;PMS_P2;Temp;Humidity;BMP_temperature;BMP_pressure;BME280_temperature;BME280_humidity;BME280_pressure;Samples;Min_cycle;Max_cycle;Signal;HPM_P1;HPM_P2
2022/06/08 00:00:15;;;;;;;1.10;1.10;;;;;;;;;;5088154;28;20206;-60
2022/06/08 00:02:43;;;;;;;2.95;0.88;;;;;;;;;;5089867;28;20194;-59
2022/06/08 00:05:11;;;;;;;2.28;1.00;;;;;;;;;;5089122;28;20455;-59
2022/06/08 00:07:38;;;;;;;0.90;0.90;;;;;;;;;;5088678;28;20707;-59
2022/06/08 00:10:05;;;;;;;1.23;1.13;;;;;;;;;;5089101;28;20248;-59
2022/06/08 00:12:32;;;;;;;1.02;1.02;;;;;;;;;;5089196;28;20248;-59
2022/06/08 00:15:01;;;;;;;1.00;1.00;;;;;;;;;;5089219;28;20260;-59
2022/06/08 00:17:28;;;;;;;0.80;0.80;;;;;;;;;;5089485;28;20211;-59
2022/06/08 00:19:55;;;;;;;0.93;0.93;;;;;;;;;;5085824;28;20230;-59
2022/06/08 00:22:22;;;;;;;1.42;1.30;;;;;;;;;;5088865;28;20198;-58
2022/06/08 00:24:49;;;;;;;1.17;1.17;;;;;;;;;;5088413;28;20199;-59
2022/06/08 00:27:16;;;;;;;1.13;1.13;;;;;;;;;;5089175;28;20209;-59
2022/06/08 00:29:44;;;;;;;1.17;1.00;;;;;;;;;;5089797;28;20203;-59
2022/06/08 00:32:12;;;;;;;1.20;1.20;;;;;;;;;;5089672;28;20580;-59
2022/06/08 00:34:39;;;;;;;0.90;0.90;;;;;;;;;;5089294;28;20214;-59
2022/06/08 00:37:06;;;;;;;1.05;1.00;;;;;;;;;;5087009;28;20230;-59
2022/06/08 00:39:33;;;;;;;1.17;1.17;;;;;;;;;;5089187;28;20222;-58
2022/06/08 00:42:02;;;;;;;1.25;1.15;;;;;;;;;;5089516;28;20591;-59
2022/06/08 00:44:31;;;;;;;0.95;0.95;;;;;;;;;;5088399;28;20234;-59
2022/06/08 00:46:58;;;;;;;0.90;0.90;;;;;;;;;;5089614;28;20663;-59
2022/06/08 00:49:28;;;;;;;2.60;1.33;;;;;;;;;;5085343;28;20198;-59
2022/06/08 00:51:55;;;;;;;1.20;1.20;;;;;;;;;;5088434;28;20702;-59
2022/06/08 00:54:27;;;;;;;2.17;1.35;;;;;;;;;;5088271;28;20213;-60
2022/06/08 00:56:55;;;;;;;1.38;1.25;;;;;;;;;;5087690;28;20867;-59
2022/06/08 00:59:22;;;;;;;1.10;1.10;;;;;;;;;;5085859;28;20219;-59
2022/06/08 01:01:50;;;;;;;1.17;1.10;;;;;;;;;;5086830;28;20331;-59
2022/06/08 01:04:18;;;;;;;1.10;1.10;;;;;;;;;;5088230;28;20663;-59
2022/06/08 01:06:51;;;;;;;1.35;1.30;;;;;;;;;;5087284;28;20201;-59
2022/06/08 01:09:21;;;;;;;1.10;1.10;;;;;;;;;;5088436;28;20624;-59
2022/06/08 01:11:48;;;;;;;1.10;1.10;;;;;;;;;;5087957;28;20202;-59
2022/06/08 01:14:16;;;;;;;1.10;1.10;;;;;;;;;;5088556;28;20356;-59
2022/06/08 01:16:45;;;;;;;1.60;1.27;;;;;;;;;;5087991;28;20671;-58
2022/06/08 01:19:16;;;;;;;1.25;1.25;;;;;;;;;;5087795;28;20222;-59
2022/06/08 01:22:04;;;;;;;2.30;1.27;;;;;;;;;;5087556;28;20831;-59
2022/06/08 01:24:33;;;;;;;2.17;1.13;;;;;;;;;;5079831;28;20209;-58
2022/06/08 01:27:18;;;;;;;1.23;1.23;;;;;;;;;;5089028;28;20549;-59
2022/06/08 01:29:51;;;;;;;1.63;1.27;;;;;;;;;;5088678;28;20202;-59
2022/06/08 01:32:21;;;;;;;2.17;1.30;;;;;;;;;;5088938;28;20202;-59
2022/06/08 01:34:55;;;;;;;1.50;1.45;;;;;;;;;;5088882;28;20198;-59
2022/06/08 01:37:29;;;;;;;1.10;1.10;;;;;;;;;;5087854;28;20230;-59
2022/06/08 01:40:02;;;;;;;1.30;1.30;;;;;;;;;;5088557;28;20317;-59
2022/06/08 01:42:43;;;;;;;0.98;0.98;;;;;;;;;;5088867;28;20242;-59
2022/06/08 01:45:33;;;;;;;1.70;1.60;;;;;;;;;;5088391;28;20210;-58
2022/06/08 01:48:24;;;;;;;1.33;1.33;;;;;;;;;;5072408;28;20226;-59
2022/06/08 01:50:56;;;;;;;1.50;1.50;;;;;;;;;;5030860;28;20208;-59
2022/06/08 01:53:30;;;;;;;4.35;1.60;;;;;;;;;;5088606;28;20671;-59
2022/06/08 01:56:01;;;;;;;1.55;1.30;;;;;;;;;;5088459;28;20209;-59
2022/06/08 01:58:30;;;;;;;2.05;1.95;;;;;;;;;;5088399;28;20754;-59
2022/06/08 02:01:01;;;;;;;3.40;1.60;;;;;;;;;;5088271;28;20202;-60
2022/06/08 02:03:30;;;;;;;1.77;1.67;;;;;;;;;;5088228;28;20680;-59
2022/06/08 02:05:59;;;;;;;1.65;1.55;;;;;;;;;;5088535;28;20217;-59
2022/06/08 02:08:30;;;;;;;1.80;1.48;;;;;;;;;;5088009;28;20202;-58
2022/06/08 02:11:01;;;;;;;1.40;1.40;;;;;;;;;;5088232;28;20206;-59
2022/06/08 02:13:30;;;;;;;1.80;1.80;;;;;;;;;;5091526;28;20672;-59
2022/06/08 02:15:59;;;;;;;3.50;2.25;;;;;;;;;;5092453;28;20632;-58
2022/06/08 02:18:29;;;;;;;1.80;1.80;;;;;;;;;;5092210;28;20202;-59
2022/06/08 02:20:58;;;;;;;1.38;1.38;;;;;;;;;;5091532;28;20206;-59
2022/06/08 02:23:27;;;;;;;2.38;1.77;;;;;;;;;;5090467;28;20205;-60
2022/06/08 02:25:56;;;;;;;2.00;1.90;;;;;;;;;;5092074;28;20301;-59
2022/06/08 02:28:27;;;;;;;1.77;1.67;;;;;;;;;;5090948;28;20213;-59
2022/06/08 02:30:56;;;;;;;1.85;1.85;;;;;;;;;;5092258;28;20214;-59
2022/06/08 02:36:12;;;;;;;1.48;1.48;;;;;;;;;;5091637;28;20339;-58
2022/06/08 02:38:42;;;;;;;1.60;1.60;;;;;;;;;;5091921;28;20283;-59
2022/06/08 02:41:10;;;;;;;1.60;1.60;;;;;;;;;;5091233;28;20206;-59
2022/06/08 02:43:42;;;;;;;1.40;1.40;;;;;;;;;;5088310;28;20235;-59
2022/06/08 02:46:12;;;;;;;1.35;1.35;;;;;;;;;;5086838;28;20195;-59
2022/06/08 02:48:39;;;;;;;1.50;1.50;;;;;;;;;;5092069;28;20199;-59
2022/06/08 02:51:06;;;;;;;1.40;1.40;;;;;;;;;;5091909;28;20211;-57
2022/06/08 02:53:44;;;;;;;1.63;1.60;;;;;;;;;;5091753;28;20560;-57
2022/06/08 02:56:15;;;;;;;1.90;1.50;;;;;;;;;;5091857;28;20210;-57
2022/06/08 02:58:46;;;;;;;1.30;1.30;;;;;;;;;;5090938;28;20266;-57
2022/06/08 03:01:15;;;;;;;1.80;1.70;;;;;;;;;;5091385;28;20206;-57
2022/06/08 03:03:45;;;;;;;1.60;1.60;;;;;;;;;;5091576;28;20210;-57
2022/06/08 03:06:15;;;;;;;1.42;1.40;;;;;;;;;;5090931;28;20212;-57
2022/06/08 03:08:44;;;;;;;1.42;1.42;;;;;;;;;;5089473;28;20209;-58
2022/06/08 03:11:12;;;;;;;1.30;1.30;;;;;;;;;;5091049;28;20331;-58
2022/06/08 03:13:41;;;;;;;1.42;1.33;;;;;;;;;;5087322;28;20202;-58
2022/06/08 03:16:10;;;;;;;1.27;1.23;;;;;;;;;;5090307;28;20600;-58
2022/06/08 03:18:37;;;;;;;1.40;1.40;;;;;;;;;;5086258;28;20644;-58
2022/06/08 03:21:06;;;;;;;1.42;1.42;;;;;;;;;;5089522;28;20199;-58
2022/06/08 03:23:33;;;;;;;1.60;1.60;;;;;;;;;;5085037;28;20729;-58
2022/06/08 03:26:00;;;;;;;1.73;1.63;;;;;;;;;;5088131;28;20202;-58
2022/06/08 03:28:27;;;;;;;1.70;1.60;;;;;;;;;;5089008;28;20202;-58
2022/06/08 03:30:55;;;;;;;1.85;1.30;;;;;;;;;;5089080;28;20197;-57
2022/06/08 03:33:23;;;;;;;1.75;1.65;;;;;;;;;;5090018;28;20244;-58
2022/06/08 03:35:50;;;;;;;1.30;1.30;;;;;;;;;;5087610;28;20230;-57
2022/06/08 03:38:17;;;;;;;1.25;1.25;;;;;;;;;;5090605;28;20229;-57
2022/06/08 03:40:44;;;;;;;1.50;1.35;;;;;;;;;;5088713;28;20226;-57
2022/06/08 03:43:11;;;;;;;1.52;1.42;;;;;;;;;;5088413;28;20276;-57
2022/06/08 03:45:41;;;;;;;1.40;1.38;;;;;;;;;;5089774;28;20279;-58
2022/06/08 03:48:09;;;;;;;1.90;1.50;;;;;;;;;;5089579;28;20210;-58
2022/06/08 03:50:40;;;;;;;2.28;1.40;;;;;;;;;;5071181;28;20210;-57
2022/06/08 03:53:09;;;;;;;1.52;1.52;;;;;;;;;;5081238;28;20209;-58
2022/06/08 03:55:37;;;;;;;6.45;1.73;;;;;;;;;;5088278;28;20213;-57
2022/06/08 03:58:05;;;;;;;1.45;1.40;;;;;;;;;;5088889;28;20198;-57
2022/06/08 04:00:32;;;;;;;2.88;1.55;;;;;;;;;;5087857;28;20226;-57
2022/06/08 04:02:59;;;;;;;1.52;1.52;;;;;;;;;;5087507;28;20203;-59
2022/06/08 04:05:26;;;;;;;2.08;1.98;;;;;;;;;;5088632;28;20211;-59
2022/06/08 04:07:55;;;;;;;1.95;1.83;;;;;;;;;;5087175;28;20206;-59
2022/06/08 04:10:22;;;;;;;1.45;1.45;;;;;;;;;;5088874;28;20205;-57
2022/06/08 04:12:49;;;;;;;1.75;1.65;;;;;;;;;;5088600;28;20226;-59
2022/06/08 04:15:41;;;;;;;1.80;1.70;;;;;;;;;;5086428;28;20206;-59
2022/06/08 04:18:04;;;;;;;1.80;1.70;;;;;;;;;;5088281;28;20206;-58
2022/06/08 04:20:31;;;;;;;1.83;1.73;;;;;;;;;;5086427;28;20287;-59
2022/06/08 04:23:00;;;;;;;2.13;1.63;;;;;;;;;;5088002;28;20209;-58
2022/06/08 04:25:27;;;;;;;2.30;2.20;;;;;;;;;;5088906;28;20199;-58
2022/06/08 04:27:54;;;;;;;1.80;1.80;;;;;;;;;;5087744;28;20206;-59
2022/06/08 04:30:22;;;;;;;1.65;1.55;;;;;;;;;;5088272;28;20198;-58
2022/06/08 04:32:49;;;;;;;1.85;1.73;;;;;;;;;;5087844;28;20221;-58
2022/06/08 04:35:16;;;;;;;2.90;1.90;;;;;;;;;;5086961;28;20812;-58
2022/06/08 04:37:43;;;;;;;2.78;1.77;;;;;;;;;;5088458;28;20217;-58
2022/06/08 04:40:14;;;;;;;1.75;1.70;;;;;;;;;;5087626;28;20222;-58
2022/06/08 04:42:41;;;;;;;1.92;1.75;;;;;;;;;;5088602;28;20647;-58
2022/06/08 04:45:10;;;;;;;1.98;1.85;;;;;;;;;;5087756;28;20202;-57
2022/06/08 04:47:37;;;;;;;1.80;1.80;;;;;;;;;;5084069;28;20206;-58
2022/06/08 04:50:04;;;;;;;1.45;1.45;;;;;;;;;;5088256;28;20206;-58
2022/06/08 04:52:31;;;;;;;2.22;1.88;;;;;;;;;;5088206;28;20275;-58
2022/06/08 04:54:59;;;;;;;2.92;2.10;;;;;;;;;;5087507;28;20199;-58
2022/06/08 04:57:29;;;;;;;1.63;1.63;;;;;;;;;;5088377;28;20214;-58
2022/06/08 04:59:56;;;;;;;1.60;1.60;;;;;;;;;;5088001;28;20268;-57
2022/06/08 05:05:08;;;;;;;3.08;2.08;;;;;;;;;;5089674;28;20205;-58
2022/06/08 05:07:36;;;;;;;2.00;1.75;;;;;;;;;;5089275;28;20210;-58
2022/06/08 05:10:03;;;;;;;1.70;1.60;;;;;;;;;;5089406;28;20206;-59
2022/06/08 05:12:33;;;;;;;1.95;1.90;;;;;;;;;;5089042;28;20208;-58
2022/06/08 05:15:00;;;;;;;1.58;1.58;;;;;;;;;;5089409;28;20195;-59
2022/06/08 05:17:27;;;;;;;1.80;1.70;;;;;;;;;;5089216;28;20784;-58
2022/06/08 05:19:54;;;;;;;3.22;1.70;;;;;;;;;;5084564;28;20242;-59
2022/06/08 05:22:21;;;;;;;2.60;1.73;;;;;;;;;;5082575;28;20210;-59
2022/06/08 05:24:48;;;;;;;1.60;1.60;;;;;;;;;;5089024;28;20672;-59
2022/06/08 05:27:15;;;;;;;2.13;1.92;;;;;;;;;;5088384;28;20202;-58
2022/06/08 05:29:43;;;;;;;2.13;1.80;;;;;;;;;;5089198;28;20668;-58
2022/06/08 05:32:10;;;;;;;3.42;1.67;;;;;;;;;;5088297;28;20206;-59
2022/06/08 05:34:37;;;;;;;1.83;1.73;;;;;;;;;;5089161;28;20214;-58
2022/06/08 05:37:04;;;;;;;6.15;1.88;;;;;;;;;;5088644;28;20267;-58
2022/06/08 05:39:31;;;;;;;4.88;1.80;;;;;;;;;;5088163;28;20217;-59
2022/06/08 05:41:58;;;;;;;2.05;1.95;;;;;;;;;;5088224;28;20221;-59
2022/06/08 05:44:25;;;;;;;2.40;2.20;;;;;;;;;;5088444;28;20234;-58
2022/06/08 05:46:54;;;;;;;2.28;2.10;;;;;;;;;;5087814;28;20206;-59
2022/06/08 05:49:21;;;;;;;2.00;1.77;;;;;;;;;;5069934;28;20210;-58
2022/06/08 05:51:48;;;;;;;13.20;4.05;;;;;;;;;;5078646;28;20947;-58
2022/06/08 05:54:18;;;;;;;1.85;1.75;;;;;;;;;;5088114;28;20207;-59
2022/06/08 05:56:45;;;;;;;2.30;2.10;;;;;;;;;;5085104;28;20214;-58
2022/06/08 05:59:12;;;;;;;2.00;2.00;;;;;;;;;;5087890;28;20206;-58
2022/06/08 06:01:39;;;;;;;2.22;2.13;;;;;;;;;;5087584;28;20230;-57
2022/06/08 06:04:08;;;;;;;1.70;1.65;;;;;;;;;;5088067;28;20297;-59
2022/06/08 06:06:35;;;;;;;4.13;1.83;;;;;;;;;;5088564;28;20194;-58
2022/06/08 06:09:03;;;;;;;3.42;1.95;;;;;;;;;;5075511;28;20210;-58
2022/06/08 06:11:32;;;;;;;2.00;1.80;;;;;;;;;;5088232;28;20741;-58
2022/06/08 06:14:00;;;;;;;2.13;2.03;;;;;;;;;;5087781;28;20202;-58
2022/06/08 06:16:27;;;;;;;6.70;1.85;;;;;;;;;;5087892;28;20199;-58
2022/06/08 06:18:54;;;;;;;1.58;1.48;;;;;;;;;;5087346;28;20227;-58
2022/06/08 06:21:25;;;;;;;2.50;1.88;;;;;;;;;;5084007;28;20241;-59
2022/06/08 06:23:52;;;;;;;1.65;1.60;;;;;;;;;;5086829;28;20198;-58
2022/06/08 06:26:19;;;;;;;1.80;1.70;;;;;;;;;;5088028;28;20198;-59
2022/06/08 06:28:46;;;;;;;3.17;1.52;;;;;;;;;;5088451;28;20206;-58
2022/06/08 06:31:16;;;;;;;1.85;1.63;;;;;;;;;;5088207;28;20413;-59
2022/06/08 06:33:43;;;;;;;1.52;1.40;;;;;;;;;;5088364;28;20201;-59
2022/06/08 06:36:10;;;;;;;1.95;1.70;;;;;;;;;;5087713;28;20757;-58
2022/06/08 06:38:38;;;;;;;1.73;1.63;;;;;;;;;;5088168;28;20219;-58
2022/06/08 06:41:06;;;;;;;1.70;1.60;;;;;;;;;;5084942;28;20237;-59
2022/06/08 06:43:35;;;;;;;2.15;1.83;;;;;;;;;;5087706;28;20242;-58
2022/06/08 06:46:02;;;;;;;1.13;1.13;;;;;;;;;;5087754;28;20226;-58
2022/06/08 06:48:29;;;;;;;1.60;1.50;;;;;;;;;;5088188;28;20214;-58
2022/06/08 06:50:56;;;;;;;1.48;1.38;;;;;;;;;;5084925;28;20252;-59
2022/06/08 06:53:23;;;;;;;2.13;1.50;;;;;;;;;;5087767;28;20280;-59
2022/06/08 06:55:52;;;;;;;1.50;1.38;;;;;;;;;;5088025;28;20210;-58
2022/06/08 06:58:19;;;;;;;1.40;1.35;;;;;;;;;;5088384;28;20208;-59
2022/06/08 07:00:46;;;;;;;1.50;1.40;;;;;;;;;;5091642;28;20776;-59
2022/06/08 07:03:14;;;;;;;3.95;1.75;;;;;;;;;;5091361;28;20202;-59
2022/06/08 07:05:41;;;;;;;1.65;1.40;;;;;;;;;;5091079;28;20206;-58
2022/06/08 07:08:08;;;;;;;2.78;1.50;;;;;;;;;;5090467;28;20218;-59
2022/06/08 07:10:36;;;;;;;1.60;1.50;;;;;;;;;;5090971;28;20221;-59
2022/06/08 07:13:05;;;;;;;1.33;1.33;;;;;;;;;;5090863;28;20614;-59
2022/06/08 07:15:32;;;;;;;1.60;1.50;;;;;;;;;;5089670;28;20222;-59
2022/06/08 07:17:59;;;;;;;1.85;1.13;;;;;;;;;;5090587;28;20210;-56
2022/06/08 07:20:27;;;;;;;1.23;1.23;;;;;;;;;;5090248;28;20670;-56
2022/06/08 07:22:54;;;;;;;2.15;1.13;;;;;;;;;;5090399;28;20206;-57
2022/06/08 07:25:21;;;;;;;2.75;1.30;;;;;;;;;;5090419;28;20275;-57
2022/06/08 07:27:48;;;;;;;1.60;1.50;;;;;;;;;;5088445;28;20210;-57
2022/06/08 07:30:17;;;;;;;1.45;1.40;;;;;;;;;;5088036;28;20195;-57
2022/06/08 07:32:44;;;;;;;1.13;1.13;;;;;;;;;;5090135;28;20210;-57
2022/06/08 07:35:11;;;;;;;1.42;1.33;;;;;;;;;;5090221;28;20202;-58
2022/06/08 07:37:38;;;;;;;1.70;1.60;;;;;;;;;;5090379;28;20746;-57
2022/06/08 07:40:05;;;;;;;2.00;1.65;;;;;;;;;;5089802;28;20398;-57
2022/06/08 07:42:32;;;;;;;1.30;1.20;;;;;;;;;;5088137;28;20238;-57
2022/06/08 07:44:59;;;;;;;1.50;1.25;;;;;;;;;;5090097;28;20198;-58
2022/06/08 07:47:28;;;;;;;1.60;1.50;;;;;;;;;;5090030;28;20244;-58
2022/06/08 07:49:54;;;;;;;1.05;1.02;;;;;;;;;;5089783;28;20323;-58
2022/06/08 07:52:22;;;;;;;1.40;1.20;;;;;;;;;;5090172;28;20214;-58
2022/06/08 07:54:50;;;;;;;2.65;1.30;;;;;;;;;;5089731;28;20202;-58
2022/06/08 07:57:18;;;;;;;2.03;1.73;;;;;;;;;;5089630;28;20824;-58
2022/06/08 07:59:45;;;;;;;1.50;1.40;;;;;;;;;;5089810;28;20625;-59
2022/06/08 08:02:14;;;;;;;1.65;1.15;;;;;;;;;;5089812;28;20716;-59
2022/06/08 08:04:43;;;;;;;1.13;1.05;;;;;;;;;;5088930;28;20226;-59
2022/06/08 08:07:10;;;;;;;1.40;0.98;;;;;;;;;;5089706;28;20206;-59
2022/06/08 08:09:37;;;;;;;1.45;1.15;;;;;;;;;;5089096;28;20218;-59
2022/06/08 08:12:05;;;;;;;2.40;1.45;;;;;;;;;;5087788;28;20203;-59
2022/06/08 08:14:33;;;;;;;2.25;1.00;;;;;;;;;;5089569;28;20214;-59
2022/06/08 08:17:00;;;;;;;1.13;1.00;;;;;;;;;;5089080;28;20283;-59
2022/06/08 08:19:27;;;;;;;5.53;1.13;;;;;;;;;;5086603;28;20358;-59
2022/06/08 08:21:56;;;;;;;1.77;1.00;;;;;;;;;;5080290;28;20222;-59
2022/06/08 08:24:23;;;;;;;1.40;0.90;;;;;;;;;;5088815;28;20206;-59
2022/06/08 08:26:51;;;;;;;0.90;0.90;;;;;;;;;;5089416;28;20293;-59
2022/06/08 08:29:18;;;;;;;2.03;1.17;;;;;;;;;;5088863;28;20671;-57
2022/06/08 08:31:45;;;;;;;1.48;0.98;;;;;;;;;;5089170;28;20233;-57
2022/06/08 08:34:12;;;;;;;1.80;1.00;;;;;;;;;;5088815;28;20422;-57
2022/06/08 08:36:39;;;;;;;1.50;1.00;;;;;;;;;;5089023;28;20230;-56
2022/06/08 08:39:08;;;;;;;1.13;1.10;;;;;;;;;;5088395;28;20287;-56
2022/06/08 08:44:28;;;;;;;1.63;0.95;;;;;;;;;;5088685;28;20245;-57
2022/06/08 08:46:57;;;;;;;0.82;0.82;;;;;;;;;;5075207;28;20740;-60
2022/06/08 08:49:26;;;;;;;1.08;0.93;;;;;;;;;;5083475;28;20259;-58
2022/06/08 08:51:57;;;;;;;0.80;0.80;;;;;;;;;;5068585;28;20207;-57
2022/06/08 08:54:28;;;;;;;1.38;0.90;;;;;;;;;;5084831;28;20206;-57
2022/06/08 08:56:58;;;;;;;0.93;0.60;;;;;;;;;;5088642;28;20214;-57
2022/06/08 08:59:27;;;;;;;1.25;1.20;;;;;;;;;;5088706;28;20243;-57
2022/06/08 09:01:55;;;;;;;0.80;0.80;;;;;;;;;;5088455;28;20837;-57
2022/06/08 09:04:26;;;;;;;1.00;1.00;;;;;;;;;;5088708;28;20842;-58
2022/06/08 09:06:54;;;;;;;0.80;0.80;;;;;;;;;;5088333;28;20241;-64
2022/06/08 09:09:23;;;;;;;0.60;0.60;;;;;;;;;;5087795;28;20218;-58
2022/06/08 09:11:51;;;;;;;5.60;1.70;;;;;;;;;;5087960;28;20494;-59
2022/06/08 09:14:22;;;;;;;24.17;6.68;;;;;;;;;;5087873;28;20777;-58
2022/06/08 09:16:50;;;;;;;3.65;1.55;;;;;;;;;;5087497;28;20202;-58
2022/06/08 09:19:31;;;;;;;6.65;2.55;;;;;;;;;;5088345;28;20451;-58
2022/06/08 09:22:00;;;;;;;6.43;2.70;;;;;;;;;;5079733;28;20233;-58
2022/06/08 09:24:30;;;;;;;4.60;2.08;;;;;;;;;;5087921;28;20263;-58
2022/06/08 09:27:07;;;;;;;1.73;1.10;;;;;;;;;;5087664;28;20199;-58
2022/06/08 09:29:34;;;;;;;1.35;1.25;;;;;;;;;;5088121;28;20255;-58
2022/06/08 09:32:01;;;;;;;1.40;0.90;;;;;;;;;;5088137;28;20204;-58
2022/06/08 09:34:29;;;;;;;3.10;0.90;;;;;;;;;;5088142;28;20279;-58
2022/06/08 09:37:05;;;;;;;3.40;1.42;;;;;;;;;;5087808;28;20576;-58
2022/06/08 09:39:33;;;;;;;0.75;0.75;;;;;;;;;;5087503;28;20213;-58
2022/06/08 09:42:05;;;;;;;1.00;0.90;;;;;;;;;;5087005;28;20222;-58
2022/06/08 09:44:37;;;;;;;2.35;1.00;;;;;;;;;;5087503;28;20234;-58
2022/06/08 09:52:47;;;;;;;1.92;0.98;;;;;;;;;;5087601;28;20242;-58
2022/06/08 09:55:20;;;;;;;1.15;0.80;;;;;;;;;;5087045;28;20248;-57
2022/06/08 09:57:53;;;;;;;0.77;0.77;;;;;;;;;;5088128;28;20221;-57
2022/06/08 10:00:29;;;;;;;1.10;0.80;;;;;;;;;;5087597;28;20210;-58
2022/06/08 10:03:10;;;;;;;0.60;0.60;;;;;;;;;;5087943;28;20240;-57
2022/06/08 10:05:43;;;;;;;0.63;0.50;;;;;;;;;;5087745;28;20214;-57
2022/06/08 10:08:19;;;;;;;0.95;0.68;;;;;;;;;;5087866;28;20198;-57
2022/06/08 10:10:48;;;;;;;1.42;0.60;;;;;;;;;;5087717;28;20198;-58
2022/06/08 10:13:20;;;;;;;3.47;0.70;;;;;;;;;;5088240;28;20272;-58
2022/06/08 10:15:49;;;;;;;0.63;0.60;;;;;;;;;;5086212;28;20206;-58
2022/06/08 10:18:18;;;;;;;0.57;0.57;;;;;;;;;;5086489;28;20210;-58
2022/06/08 10:20:48;;;;;;;0.40;0.38;;;;;;;;;;5075841;28;20210;-57
2022/06/08 10:23:25;;;;;;;0.60;0.60;;;;;;;;;;5086417;28;20202;-58
2022/06/08 10:25:55;;;;;;;2.08;0.70;;;;;;;;;;5087527;28;20948;-58
2022/06/08 10:28:27;;;;;;;0.98;0.50;;;;;;;;;;5087441;28;20619;-59
2022/06/08 10:30:57;;;;;;;0.75;0.57;;;;;;;;;;5087983;28;20260;-56
2022/06/08 10:33:27;;;;;;;0.70;0.50;;;;;;;;;;5088900;28;20206;-57
2022/06/08 10:35:56;;;;;;;2.42;0.50;;;;;;;;;;5091745;28;20221;-56
2022/06/08 10:38:24;;;;;;;0.40;0.40;;;;;;;;;;5091513;28;20381;-57
2022/06/08 10:40:54;;;;;;;1.27;0.52;;;;;;;;;;5091720;28;20206;-57
2022/06/08 10:43:24;;;;;;;1.13;0.50;;;;;;;;;;5091265;28;20313;-57
2022/06/08 10:45:57;;;;;;;0.45;0.40;;;;;;;;;;5091603;28;20267;-59
2022/06/08 10:48:26;;;;;;;3.83;0.60;;;;;;;;;;5091664;28;20206;-57
2022/06/08 10:51:21;;;;;;;1.23;0.45;;;;;;;;;;5084921;28;20240;-57
2022/06/08 10:56:47;;;;;;;2.72;0.68;;;;;;;;;;5080490;28;20255;-59
2022/06/08 10:59:15;;;;;;;0.50;0.50;;;;;;;;;;5090950;28;20289;-59
2022/06/08 11:01:52;;;;;;;0.50;0.50;;;;;;;;;;5091489;28;20421;-59
2022/06/08 11:04:37;;;;;;;0.80;0.80;;;;;;;;;;5091473;28;20641;-59
2022/06/08 11:07:05;;;;;;;0.98;0.70;;;;;;;;;;5090212;28;20202;-56
2022/06/08 11:09:50;;;;;;;1.85;1.10;;;;;;;;;;5091282;28;20759;-56
2022/06/08 11:12:22;;;;;;;1.65;0.82;;;;;;;;;;5091183;28;20267;-58
2022/06/08 11:14:53;;;;;;;0.95;0.52;;;;;;;;;;5091357;28;20206;-58
2022/06/08 11:17:24;;;;;;;0.70;0.70;;;;;;;;;;5090782;28;20309;-57
2022/06/08 11:19:53;;;;;;;1.20;0.70;;;;;;;;;;5090137;28;20206;-57
2022/06/08 11:22:23;;;;;;;0.70;0.70;;;;;;;;;;5089554;28;20236;-57
2022/06/08 11:24:51;;;;;;;0.98;0.80;;;;;;;;;;5073653;28;20233;-58
2022/06/08 11:27:29;;;;;;;2.47;0.77;;;;;;;;;;5082396;28;20782;-57
2022/06/08 11:29:57;;;;;;;0.60;0.50;;;;;;;;;;5087563;28;20671;-58
2022/06/08 11:32:42;;;;;;;2.15;0.60;;;;;;;;;;5084477;28;20656;-58
2022/06/08 11:35:30;;;;;;;1.27;0.98;;;;;;;;;;5073818;28;20205;-57
2022/06/08 11:38:04;;;;;;;0.60;0.60;;;;;;;;;;5078851;28;20263;-58
2022/06/08 11:40:32;;;;;;;3.58;0.70;;;;;;;;;;5076782;28;20271;-58
2022/06/08 11:43:02;;;;;;;1.50;0.80;;;;;;;;;;5065490;28;20246;-57
2022/06/08 11:45:37;;;;;;;1.50;0.68;;;;;;;;;;5074461;28;20317;-58
2022/06/08 11:48:14;;;;;;;1.65;0.73;;;;;;;;;;5072992;28;20202;-58
2022/06/08 11:50:44;;;;;;;0.95;0.65;;;;;;;;;;5075110;28;20214;-58
2022/06/08 11:53:17;;;;;;;0.55;0.55;;;;;;;;;;5065934;28;20211;-58
2022/06/08 11:55:48;;;;;;;0.55;0.55;;;;;;;;;;5084236;28;20205;-58
2022/06/08 11:58:18;;;;;;;0.70;0.70;;;;;;;;;;5085448;28;20593;-58
2022/06/08 12:00:53;;;;;;;0.73;0.60;;;;;;;;;;5084570;28;20212;-58
2022/06/08 12:03:26;;;;;;;1.20;0.68;;;;;;;;;;5085426;28;20249;-60
2022/06/08 12:06:03;;;;;;;1.33;0.50;;;;;;;;;;5086410;28;20211;-58
2022/06/08 12:08:34;;;;;;;2.15;0.80;;;;;;;;;;5084550;28;20447;-57
2022/06/08 12:11:03;;;;;;;3.50;0.70;;;;;;;;;;5082331;28;20230;-58
2022/06/08 12:13:31;;;;;;;2.92;0.60;;;;;;;;;;5085310;28;20202;-57
2022/06/08 12:15:58;;;;;;;0.50;0.50;;;;;;;;;;5081530;28;20203;-58
2022/06/08 12:18:47;;;;;;;0.80;0.80;;;;;;;;;;5084291;28;20200;-58
2022/06/08 12:21:34;;;;;;;0.73;0.60;;;;;;;;;;5084489;28;20210;-65
2022/06/08 12:24:07;;;;;;;0.80;0.80;;;;;;;;;;5085948;28;20293;-59
2022/06/08 12:26:44;;;;;;;2.63;0.63;;;;;;;;;;5076504;28;20677;-60
2022/06/08 12:29:21;;;;;;;2.92;0.55;;;;;;;;;;5077856;28;20210;-59
2022/06/08 12:31:58;;;;;;;2.20;0.73;;;;;;;;;;5081643;28;20297;-59
2022/06/08 12:34:26;;;;;;;0.77;0.77;;;;;;;;;;5081162;28;20198;-59
2022/06/08 12:36:55;;;;;;;0.90;0.90;;;;;;;;;;5085172;28;20222;-59
2022/06/08 12:39:28;;;;;;;0.63;0.60;;;;;;;;;;5085373;28;20199;-58
2022/06/08 12:41:55;;;;;;;0.80;0.70;;;;;;;;;;5080899;28;20255;-59
2022/06/08 12:44:23;;;;;;;0.90;0.80;;;;;;;;;;5085463;28;20455;-59
2022/06/08 12:46:53;;;;;;;3.20;0.90;;;;;;;;;;5085366;28;20221;-58
2022/06/08 12:49:21;;;;;;;0.77;0.77;;;;;;;;;;5079138;28;20562;-59
2022/06/08 12:51:50;;;;;;;2.13;0.73;;;;;;;;;;5085327;28;20210;-59
2022/06/08 12:54:21;;;;;;;0.38;0.38;;;;;;;;;;5085620;28;20206;-59
2022/06/08 12:56:49;;;;;;;0.43;0.43;;;;;;;;;;5084343;28;20213;-59
2022/06/08 12:59:16;;;;;;;0.68;0.68;;;;;;;;;;5084820;28;20225;-59
2022/06/08 13:01:44;;;;;;;0.65;0.65;;;;;;;;;;5083835;28;20267;-67
2022/06/08 13:04:11;;;;;;;0.50;0.50;;;;;;;;;;5081813;28;20241;-59
2022/06/08 13:06:38;;;;;;;0.45;0.45;;;;;;;;;;5078341;28;20213;-59
2022/06/08 13:09:05;;;;;;;1.33;0.55;;;;;;;;;;5084436;28;20202;-59
2022/06/08 13:11:34;;;;;;;0.60;0.60;;;;;;;;;;5074361;28;20211;-59
2022/06/08 13:14:01;;;;;;;0.70;0.70;;;;;;;;;;5082025;28;20214;-59
2022/06/08 13:16:30;;;;;;;0.80;0.68;;;;;;;;;;5083291;28;20199;-59
2022/06/08 13:18:58;;;;;;;5.68;0.70;;;;;;;;;;5078900;28;20248;-58
2022/06/08 13:21:27;;;;;;;0.82;0.60;;;;;;;;;;5081251;28;21049;-58
2022/06/08 13:23:54;;;;;;;0.70;0.70;;;;;;;;;;5084108;28;20721;-58
2022/06/08 13:26:24;;;;;;;0.95;0.75;;;;;;;;;;5084520;28;20214;-58
2022/06/08 13:28:53;;;;;;;1.02;0.60;;;;;;;;;;5068944;28;20762;-58
2022/06/08 13:31:23;;;;;;;0.85;0.70;;;;;;;;;;5068459;28;20226;-58
2022/06/08 13:33:59;;;;;;;1.00;0.57;;;;;;;;;;5068315;28;20202;-58
2022/06/08 13:36:28;;;;;;;4.43;0.90;;;;;;;;;;5078851;28;20814;-58
2022/06/08 13:38:59;;;;;;;2.20;0.80;;;;;;;;;;5084124;28;20214;-59
2022/06/08 13:41:26;;;;;;;0.77;0.60;;;;;;;;;;5083969;28;20210;-58
2022/06/08 13:43:54;;;;;;;0.82;0.80;;;;;;;;;;5084355;28;20245;-58
2022/06/08 13:46:24;;;;;;;0.57;0.40;;;;;;;;;;5084265;28;20202;-59
2022/06/08 13:48:52;;;;;;;0.93;0.65;;;;;;;;;;5081926;28;20221;-57
2022/06/08 13:51:20;;;;;;;1.13;0.70;;;;;;;;;;5083791;28;20210;-58
2022/06/08 13:53:47;;;;;;;1.30;0.73;;;;;;;;;;5083730;28;20584;-58
2022/06/08 13:56:14;;;;;;;0.63;0.60;;;;;;;;;;5082626;28;20218;-58
2022/06/08 13:58:42;;;;;;;0.40;0.40;;;;;;;;;;5078999;28;20213;-59
2022/06/08 14:01:17;;;;;;;0.85;0.40;;;;;;;;;;5072470;28;20235;-59
2022/06/08 14:03:45;;;;;;;1.33;0.50;;;;;;;;;;5076636;28;20786;-60
2022/06/08 14:14:28;;;;;;;1.45;0.57;;;;;;;;;;5083829;28;20271;-60
2022/06/08 14:16:58;;;;;;;0.60;0.60;;;;;;;;;;5083300;28;20209;-57
2022/06/08 14:19:27;;;;;;;0.80;0.50;;;;;;;;;;5082283;28;20210;-58
2022/06/08 14:21:56;;;;;;;1.15;0.45;;;;;;;;;;5081128;28;20214;-59
2022/06/08 14:24:24;;;;;;;0.50;0.50;;;;;;;;;;5083776;28;20665;-57
2022/06/08 14:26:51;;;;;;;3.22;0.93;;;;;;;;;;5076814;28;20640;-57
2022/06/08 14:29:18;;;;;;;1.67;0.70;;;;;;;;;;5080015;28;20690;-57
2022/06/08 14:31:46;;;;;;;1.02;0.80;;;;;;;;;;5077274;28;20203;-57
2022/06/08 14:34:18;;;;;;;2.47;1.00;;;;;;;;;;5079173;28;20218;-57
2022/06/08 14:36:45;;;;;;;2.00;0.70;;;;;;;;;;5083278;28;20758;-60
2022/06/08 14:39:14;;;;;;;2.42;1.10;;;;;;;;;;5081367;28;20341;-56
2022/06/08 14:41:41;;;;;;;0.82;0.82;;;;;;;;;;5083695;28;20202;-57
2022/06/08 14:44:11;;;;;;;1.10;0.90;;;;;;;;;;5083125;28;20260;-57
2022/06/08 14:46:39;;;;;;;1.70;0.77;;;;;;;;;;5083445;28;20214;-57
2022/06/08 14:49:06;;;;;;;2.97;0.60;;;;;;;;;;5083172;28;20210;-57
2022/06/08 14:51:35;;;;;;;0.70;0.63;;;;;;;;;;5082824;28;20206;-57
2022/06/08 14:54:02;;;;;;;0.60;0.60;;;;;;;;;;5073352;28;20203;-56
2022/06/08 14:56:29;;;;;;;2.65;1.00;;;;;;;;;;5072249;28;20213;-57
2022/06/08 14:58:59;;;;;;;0.60;0.60;;;;;;;;;;5081944;28;20260;-59
2022/06/08 15:01:29;;;;;;;1.50;0.77;;;;;;;;;;5069808;28;20207;-60
2022/06/08 15:03:56;;;;;;;1.27;0.77;;;;;;;;;;5080331;28;20962;-56
2022/06/08 15:06:23;;;;;;;1.55;0.80;;;;;;;;;;5075413;28;20203;-56
2022/06/08 15:08:52;;;;;;;1.00;0.90;;;;;;;;;;5077930;28;20741;-56
2022/06/08 15:14:13;;;;;;;2.45;1.23;;;;;;;;;;5082344;28;20255;-57
2022/06/08 15:16:40;;;;;;;1.70;1.08;;;;;;;;;;5063991;28;20203;-58
2022/06/08 15:19:11;;;;;;;1.85;0.90;;;;;;;;;;5075400;28;20218;-56
2022/06/08 15:21:38;;;;;;;1.95;0.85;;;;;;;;;;5084999;28;20256;-58
2022/06/08 15:24:07;;;;;;;1.65;1.02;;;;;;;;;;5086603;28;20230;-56